Time;durP1;ratioP1;P1;durP2;ratioP2;P2;SDS_P1;SDS_P2;PMS_P1;PMS_P2;Temp;Humidity;BMP_temperature;BMP_pressure;BME280_temperature;BME280_humidity;BME280_pressure;Samples;Min_cycle;Max_cycle;Signal;HPM_P1;HPM_P2
2021/04/08 00:01:46;;;;;;;7.30;6.12;;;;;;;4.41;81.82;99788.61;2805877;84;20163;-61
2021/04/08 00:05:56;;;;;;;8.30;5.45;;;;;;;4.35;82.27;99791.65;2801069;84;21590;-61
2021/04/08 00:10:02;;;;;;;8.60;6.65;;;;;;;4.32;82.53;99785.72;2785090;84;21188;-61
2021/04/08 00:14:07;;;;;;;7.40;6.70;;;;;;;4.28;82.74;99786.38;2824955;84;21610;-61
2021/04/08 00:18:12;;;;;;;8.13;6.50;;;;;;;4.33;82.92;99795.31;2825075;84;21137;-61
2021/04/08 00:22:16;;;;;;;6.62;6.00;;;;;;;4.37;83.11;99798.11;2825248;84;21188;-62
2021/04/08 00:26:19;;;;;;;7.97;6.97;;;;;;;4.46;83.16;99796.69;2824974;84;21149;-61
2021/04/08 00:30:23;;;;;;;8.55;7.75;;;;;;;4.54;83.00;99805.78;2825080;84;21113;-61
2021/04/08 00:34:26;;;;;;;10.80;7.00;;;;;;;4.60;82.75;99804.55;2825021;84;21105;-61
2021/04/08 00:38:29;;;;;;;10.45;6.87;;;;;;;4.65;82.80;99807.72;2825044;84;21591;-61
2021/04/08 00:42:33;;;;;;;7.58;6.37;;;;;;;4.67;82.67;99815.54;2825029;84;21563;-62
2021/04/08 00:46:40;;;;;;;10.32;8.85;;;;;;;4.67;82.85;99809.78;2824892;84;21129;-62
2021/04/08 00:50:46;;;;;;;11.38;8.23;;;;;;;4.70;82.87;99822.75;2824831;84;21125;-62
2021/04/08 00:54:51;;;;;;;8.35;6.22;;;;;;;4.75;82.70;99820.31;2825359;84;21132;-63
2021/04/08 00:58:58;;;;;;;6.22;5.65;;;;;;;4.75;82.62;99823.78;2827386;83;21115;-61
2021/04/08 01:03:03;;;;;;;6.95;5.95;;;;;;;4.76;82.50;99816.25;2829888;84;21157;-61
2021/04/08 01:07:08;;;;;;;7.53;6.00;;;;;;;4.74;82.49;99826.05;2829878;84;21145;-62
2021/04/08 01:11:15;;;;;;;6.30;5.70;;;;;;;4.73;82.34;99828.31;2824336;84;21129;-61
2021/04/08 01:15:20;;;;;;;9.05;6.78;;;;;;;4.73;82.39;99827.48;2783608;84;21078;-63
2021/04/08 01:19:54;;;;;;;7.42;6.25;;;;;;;4.69;82.53;99840.83;2805047;84;21132;-62
2021/04/08 01:24:40;;;;;;;7.35;6.62;;;;;;;4.70;82.54;99837.24;2829797;84;21161;-62
2021/04/08 01:28:47;;;;;;;6.40;4.80;;;;;;;4.75;82.36;99845.34;2829471;84;21519;-61
2021/04/08 01:33:15;;;;;;;6.87;5.20;;;;;;;4.74;82.09;99841.85;2805738;84;21157;-62
2021/04/08 01:37:28;;;;;;;12.10;6.22;;;;;;;4.77;82.22;99835.55;2878177;82;21589;-63
2021/04/08 01:41:38;;;;;;;7.58;5.40;;;;;;;4.81;81.91;99840.50;2878168;82;21146;-62
2021/04/08 01:45:46;;;;;;;7.25;5.62;;;;;;;4.85;81.78;99853.02;2878211;82;21566;-62
2021/04/08 01:49:54;;;;;;;6.72;5.30;;;;;;;4.85;81.66;99856.51;2832050;82;21124;-62
2021/04/08 01:54:02;;;;;;;9.80;4.78;;;;;;;4.86;81.37;99859.52;2878412;82;21108;-62
2021/04/08 01:58:06;;;;;;;8.30;5.50;;;;;;;4.85;81.20;99862.23;2878266;82;21148;-61
2021/04/08 02:02:11;;;;;;;4.55;3.75;;;;;;;4.87;81.27;99870.89;2878407;82;21104;-61
2021/04/08 02:06:18;;;;;;;8.58;5.72;;;;;;;4.90;81.04;99865.91;2878161;82;21118;-62
2021/04/08 02:10:23;;;;;;;7.20;4.05;;;;;;;4.95;80.70;99870.39;2878266;82;21125;-62
2021/04/08 02:14:31;;;;;;;11.90;5.22;;;;;;;4.95;80.03;99861.17;2878081;82;21547;-63
2021/04/08 02:18:39;;;;;;;7.42;4.97;;;;;;;4.92;79.44;99876.73;2878174;82;21097;-60
2021/04/08 02:22:50;;;;;;;5.28;3.77;;;;;;;4.84;79.39;99896.98;2878161;82;21141;-62
2021/04/08 02:26:54;;;;;;;7.30;4.78;;;;;;;4.81;79.56;99891.06;2878439;82;21117;-61
2021/04/08 02:30:59;;;;;;;7.15;4.53;;;;;;;4.71;79.27;99905.30;2878576;82;21523;-61
2021/04/08 02:35:13;;;;;;;7.40;3.83;;;;;;;4.62;79.39;99913.31;2879823;82;21160;-61
2021/04/08 02:39:17;;;;;;;9.30;5.78;;;;;;;4.62;79.11;99926.48;2881800;82;21101;-60
2021/04/08 02:43:23;;;;;;;8.28;5.80;;;;;;;4.57;79.06;99924.61;2881478;82;21562;-60
2021/04/08 02:47:28;;;;;;;8.50;4.45;;;;;;;4.50;79.09;99952.26;2881781;82;21191;-61
2021/04/08 02:51:58;;;;;;;8.95;5.45;;;;;;;4.42;78.82;99938.24;2881669;82;21093;-58
2021/04/08 02:56:06;;;;;;;6.67;4.03;;;;;;;4.35;78.98;99952.28;2881651;82;21112;-62
2021/04/08 03:00:12;;;;;;;12.85;4.87;;;;;;;4.31;78.89;99961.29;2879709;82;21102;-62
2021/04/08 03:04:19;;;;;;;9.38;6.17;;;;;;;4.33;78.80;99967.80;2878497;81;21133;-60
2021/04/08 03:08:24;;;;;;;8.55;5.25;;;;;;;4.23;78.39;99972.77;2880722;82;21128;-62
2021/04/08 03:12:30;;;;;;;6.00;4.10;;;;;;;4.18;78.79;99971.72;2881256;82;21132;-61
2021/04/08 03:16:39;;;;;;;9.08;4.12;;;;;;;4.19;79.05;99981.31;2881337;82;21116;-60
2021/04/08 03:20:52;;;;;;;12.07;7.53;;;;;;;4.18;79.34;99976.98;2881079;82;21136;-60
2021/04/08 03:24:57;;;;;;;4.45;3.55;;;;;;;4.19;79.51;99993.16;2880971;82;21117;-68
2021/04/08 03:29:03;;;;;;;15.83;6.63;;;;;;;4.24;79.67;100000.80;2880334;82;21128;-69
2021/04/08 03:33:09;;;;;;;13.53;7.33;;;;;;;4.22;79.65;100011.89;2871635;82;21125;-67
2021/04/08 03:37:34;;;;;;;9.85;6.40;;;;;;;4.20;79.87;100008.02;2810572;84;21133;-65
2021/04/08 03:41:43;;;;;;;10.15;4.97;;;;;;;4.17;79.71;100014.78;2807095;84;21674;-65
2021/04/08 03:45:46;;;;;;;12.10;6.05;;;;;;;4.16;79.87;100022.80;2806978;84;21592;-66
2021/04/08 03:49:51;;;;;;;4.67;4.17;;;;;;;4.18;79.68;100029.64;2807151;84;21151;-65
2021/04/08 03:53:56;;;;;;;8.80;5.23;;;;;;;4.19;79.57;100027.39;2807511;84;21151;-65
2021/04/08 03:58:03;;;;;;;5.70;4.12;;;;;;;4.11;79.30;100022.58;2806997;84;21130;-66
2021/04/08 04:02:07;;;;;;;10.98;4.92;;;;;;;4.09;78.81;100036.30;2806309;84;21139;-65
2021/04/08 04:06:13;;;;;;;5.17;3.30;;;;;;;3.98;78.29;100034.78;2766712;84;21131;-66
2021/04/08 04:10:22;;;;;;;6.00;3.95;;;;;;;3.94;78.11;100041.17;2806451;84;21143;-65
2021/04/08 04:14:29;;;;;;;12.35;4.17;;;;;;;3.90;77.58;100055.42;2806477;84;21180;-65
2021/04/08 04:18:32;;;;;;;8.03;3.80;;;;;;;3.89;77.20;100062.48;2807114;84;21719;-64
2021/04/08 04:22:36;;;;;;;7.22;3.50;;;;;;;3.83;77.14;100042.62;2806990;84;21166;-66
2021/04/08 04:26:39;;;;;;;8.73;4.20;;;;;;;3.85;77.43;100051.27;2806033;84;21127;-70
2021/04/08 04:30:45;;;;;;;7.30;4.00;;;;;;;3.82;77.36;100059.34;2803252;84;21234;-72
2021/04/08 04:34:53;;;;;;;4.80;4.33;;;;;;;3.81;76.96;100081.34;2805896;84;21118;-71
2021/04/08 04:38:58;;;;;;;5.35;4.42;;;;;;;3.86;76.78;100081.08;2810704;84;21131;-67
2021/04/08 04:43:02;;;;;;;7.92;4.70;;;;;;;3.89;76.89;100083.98;2820056;84;21131;-69
2021/04/08 04:47:07;;;;;;;7.83;4.80;;;;;;;3.94;77.04;100085.91;2819815;84;21159;-69
2021/04/08 04:51:13;;;;;;;7.90;4.12;;;;;;;3.95;77.16;100092.87;2819771;84;21565;-68
2021/04/08 04:55:18;;;;;;;7.25;5.40;;;;;;;3.97;76.96;100097.57;2820193;84;21122;-69
2021/04/08 04:59:25;;;;;;;8.53;6.23;;;;;;;4.01;77.45;100097.77;2820215;84;21557;-71
2021/04/08 05:03:52;;;;;;;9.15;5.33;;;;;;;4.04;77.34;100104.17;2820249;84;21166;-71
2021/04/08 05:07:54;;;;;;;10.20;6.28;;;;;;;4.05;77.36;100095.81;2829351;84;21606;-69
2021/04/08 05:11:59;;;;;;;7.08;5.40;;;;;;;4.13;77.38;100109.38;2784249;84;21136;-70
2021/04/08 05:16:03;;;;;;;20.62;7.58;;;;;;;4.32;77.96;100105.19;2830047;84;21160;-72
2021/04/08 05:20:13;;;;;;;10.88;5.55;;;;;;;4.65;76.89;100108.08;2828235;84;21152;-70
2021/04/08 05:24:18;;;;;;;6.05;4.40;;;;;;;4.80;75.03;100108.94;2783868;85;21582;-70
2021/04/08 05:28:22;;;;;;;10.80;5.95;;;;;;;4.73;75.28;100110.75;2783448;85;21149;-70
2021/04/08 05:32:47;;;;;;;15.28;6.22;;;;;;;4.62;74.95;100116.17;2818599;84;21141;-72
2021/04/08 05:36:50;;;;;;;7.72;5.45;;;;;;;4.51;74.91;100119.45;2785483;85;21128;-69
2021/04/08 05:40:53;;;;;;;11.25;4.97;;;;;;;4.43;75.48;100129.61;2751567;84;21155;-70
2021/04/08 05:44:59;;;;;;;10.82;5.30;;;;;;;4.36;76.20;100144.91;2782491;85;21537;-70
2021/04/08 05:49:07;;;;;;;9.03;4.80;;;;;;;4.14;78.44;100160.64;2785363;85;21150;-69
2021/04/08 05:53:13;;;;;;;6.72;4.28;;;;;;;3.86;80.83;100180.59;2783508;85;21139;-70
2021/04/08 05:57:17;;;;;;;6.55;4.62;;;;;;;3.62;82.43;100172.75;2820085;84;21129;-70
2021/04/08 06:01:20;;;;;;;7.05;5.37;;;;;;;3.57;83.20;100184.38;2819227;83;21121;-70
2021/04/08 06:05:23;;;;;;;10.95;4.97;;;;;;;3.65;84.03;100188.36;2821281;84;21093;-70
2021/04/08 06:09:28;;;;;;;8.93;6.85;;;;;;;3.77;84.28;100194.73;2821920;84;21149;-70
2021/04/08 06:13:31;;;;;;;9.18;7.20;;;;;;;3.93;83.66;100202.62;2821983;84;21132;-70
2021/04/08 06:17:34;;;;;;;9.15;6.10;;;;;;;4.03;83.45;100210.84;2822147;84;21571;-70
2021/04/08 06:21:40;;;;;;;17.23;7.35;;;;;;;4.07;82.62;100218.98;2821847;84;21132;-70
2021/04/08 06:25:43;;;;;;;;;;;;;;;4.08;82.23;100224.63;2824497;84;21141;-69
2021/04/08 06:29:46;;;;;;;8.88;5.53;;;;;;;4.02;82.14;100228.44;2822008;84;20197;-69
2021/04/08 06:33:49;;;;;;;23.40;8.35;;;;;;;3.96;82.39;100238.00;2821990;84;21137;-69
2021/04/08 06:37:53;;;;;;;6.45;5.60;;;;;;;4.02;82.62;100243.38;2811388;84;21161;-70
2021/04/08 06:42:01;;;;;;;9.33;4.35;;;;;;;4.07;82.08;100246.63;2818946;83;21226;-70
2021/04/08 06:46:11;;;;;;;7.70;5.22;;;;;;;4.08;81.57;100267.58;2820700;84;21349;-69
2021/04/08 06:50:17;;;;;;;9.93;6.28;;;;;;;4.20;81.57;100254.69;2817697;84;21987;-69
2021/04/08 06:54:22;;;;;;;9.55;4.80;;;;;;;4.30;80.84;100245.31;2819986;84;21142;-70
2021/04/08 06:58:25;;;;;;;9.30;5.08;;;;;;;4.45;80.29;100263.83;2820519;84;21199;-69
2021/04/08 07:02:32;;;;;;;20.75;6.83;;;;;;;4.51;79.00;100269.61;2817514;84;21128;-69
2021/04/08 07:06:35;;;;;;;8.03;4.78;;;;;;;4.61;78.69;100281.78;2821464;84;21117;-70
2021/04/08 07:10:42;;;;;;;11.90;6.65;;;;;;;4.68;78.89;100279.17;2822120;84;21616;-70
2021/04/08 07:14:50;;;;;;;11.25;6.78;;;;;;;4.65;78.39;100282.47;2822151;84;21108;-71
2021/04/08 07:18:55;;;;;;;9.10;6.95;;;;;;;4.64;78.55;100286.88;2820852;84;21577;-69
2021/04/08 07:23:15;;;;;;;11.93;6.05;;;;;;;4.71;78.98;100300.06;2821590;84;21212;-70
2021/04/08 07:27:22;;;;;;;14.60;7.60;;;;;;;4.77;78.25;100295.41;2821351;84;21188;-69
2021/04/08 07:31:30;;;;;;;9.93;5.72;;;;;;;4.73;77.54;100311.02;2820355;84;21137;-71
2021/04/08 07:35:41;;;;;;;10.82;7.35;;;;;;;4.81;78.00;100316.69;2819528;84;21129;-69
2021/04/08 07:39:47;;;;;;;13.05;7.35;;;;;;;4.93;77.28;100318.63;2819995;84;21116;-70
2021/04/08 07:44:02;;;;;;;11.03;5.97;;;;;;;4.95;77.96;100324.66;2822160;84;21136;-70
2021/04/08 07:48:08;;;;;;;11.88;6.20;;;;;;;5.04;76.82;100336.91;2822122;84;21077;-70
2021/04/08 07:52:19;;;;;;;10.78;7.35;;;;;;;5.19;77.32;100346.58;2820785;84;21171;-70
2021/04/08 07:56:34;;;;;;;11.33;7.30;;;;;;;5.12;76.74;100350.52;2821544;84;21141;-70
2021/04/08 08:00:42;;;;;;;7.22;5.62;;;;;;;5.04;76.61;100361.97;2819688;84;21153;-70
2021/04/08 08:04:46;;;;;;;16.50;7.70;;;;;;;5.03;76.70;100361.59;2815275;84;21137;-70
2021/04/08 08:08:51;;;;;;;10.70;6.65;;;;;;;5.11;76.96;100372.53;2819627;84;21141;-70
2021/04/08 08:12:56;;;;;;;7.20;6.50;;;;;;;5.07;76.09;100367.05;2819923;84;21117;-71
2021/04/08 08:17:06;;;;;;;13.25;5.85;;;;;;;5.03;77.10;100374.77;2821457;84;21161;-70
2021/04/08 08:21:13;;;;;;;12.37;6.10;;;;;;;4.94;77.54;100387.55;2819716;84;21129;-70
2021/04/08 08:25:25;;;;;;;8.30;5.45;;;;;;;4.94;77.65;100390.19;2821605;84;21141;-70
2021/04/08 08:29:36;;;;;;;12.75;7.05;;;;;;;4.92;76.79;100389.42;3066878;77;22860;-68
2021/04/08 08:33:39;;;;;;;16.65;5.95;;;;;;;4.90;77.33;100411.05;2998243;78;21121;-67
2021/04/08 08:37:43;;;;;;;13.50;6.35;;;;;;;4.97;76.49;100401.88;2992195;78;21582;-68
2021/04/08 08:41:50;;;;;;;18.65;4.90;;;;;;;5.00;75.88;100412.24;2913768;80;21102;-68
2021/04/08 08:45:54;;;;;;;10.35;5.10;;;;;;;5.17;75.94;100418.34;2871440;81;21584;-68
2021/04/08 08:50:13;;;;;;;19.48;5.40;;;;;;;5.15;74.46;100413.14;2894022;81;21135;-70
2021/04/08 08:54:16;;;;;;;12.10;6.40;;;;;;;5.08;74.15;100425.45;2880286;81;21119;-69
2021/04/08 08:58:20;;;;;;;13.00;5.67;;;;;;;5.19;75.60;100430.11;2919571;80;21599;-69
2021/04/08 09:02:23;;;;;;;12.47;6.03;;;;;;;5.21;75.84;100437.45;2906691;80;21107;-73
2021/04/08 09:06:27;;;;;;;6.67;5.92;;;;;;;5.27;77.44;100447.20;2907686;80;21114;-69
2021/04/08 09:10:34;;;;;;;12.40;7.70;;;;;;;5.40;77.37;100435.95;2865780;82;21088;-68
2021/04/08 09:14:37;;;;;;;6.45;5.42;;;;;;;5.76;77.62;100453.67;2911155;80;21153;-69
2021/04/08 09:18:40;;;;;;;9.80;6.72;;;;;;;5.94;75.50;100463.63;2872044;82;21110;-68
2021/04/08 09:23:01;;;;;;;9.40;5.25;;;;;;;5.88;75.06;100474.53;2874226;81;21130;-69
2021/04/08 09:27:10;;;;;;;19.90;5.55;;;;;;;5.92;74.43;100472.95;2882947;81;21143;-69
2021/04/08 09:31:25;;;;;;;14.47;6.37;;;;;;;6.02;73.33;100464.53;2871242;81;21608;-71
2021/04/08 09:35:37;;;;;;;11.95;6.83;;;;;;;5.88;72.82;100475.86;2865194;81;21133;-70
2021/04/08 09:39:43;;;;;;;17.48;6.00;;;;;;;5.66;75.30;100478.44;2877974;81;21567;-71
2021/04/08 09:43:47;;;;;;;9.30;4.62;;;;;;;5.58;77.27;100497.35;2858927;82;21564;-70
2021/04/08 09:48:21;;;;;;;8.73;7.25;;;;;;;5.49;75.47;100494.77;2864410;81;21508;-69
2021/04/08 09:52:24;;;;;;;12.58;6.03;;;;;;;5.49;77.02;100501.37;2868235;82;21193;-70
2021/04/08 09:56:50;;;;;;;11.15;5.72;;;;;;;5.72;77.45;100503.17;2910235;80;21593;-70
2021/04/08 10:00:56;;;;;;;8.45;6.10;;;;;;;6.07;76.65;100520.06;2914197;80;21150;-71
2021/04/08 10:05:06;;;;;;;7.53;5.75;;;;;;;6.32;74.92;100505.41;2908380;80;21145;-73
2021/04/08 10:09:16;;;;;;;10.63;5.10;;;;;;;6.55;74.95;100519.84;2912941;80;21149;-71
2021/04/08 10:13:24;;;;;;;11.73;6.85;;;;;;;6.58;72.79;100510.88;2913310;80;21181;-71
2021/04/08 10:17:37;;;;;;;7.30;5.15;;;;;;;6.57;71.58;100514.48;2901811;80;21164;-73
2021/04/08 10:21:40;;;;;;;18.77;4.58;;;;;;;6.54;69.33;100515.98;2907990;80;21149;-72
2021/04/08 10:25:43;;;;;;;12.70;5.10;;;;;;;6.53;68.12;100515.61;2909671;80;21122;-71
2021/04/08 10:29:48;;;;;;;11.45;4.62;;;;;;;6.55;66.88;100510.59;2922166;80;21145;-71
2021/04/08 10:34:06;;;;;;;8.55;3.67;;;;;;;6.48;66.39;100533.52;2908673;80;21118;-71
2021/04/08 10:38:11;;;;;;;4.37;3.42;;;;;;;6.34;65.82;100525.98;2900268;80;21189;-71
2021/04/08 10:42:14;;;;;;;6.25;3.12;;;;;;;6.48;66.15;100536.16;2865810;82;21181;-73
2021/04/08 10:46:20;;;;;;;6.87;3.30;;;;;;;6.67;65.01;100527.97;2901058;80;21134;-71
2021/04/08 10:50:24;;;;;;;8.45;3.27;;;;;;;6.81;63.79;100535.05;2856702;81;21158;-72
2021/04/08 10:54:30;;;;;;;12.75;3.50;;;;;;;6.92;64.11;100533.92;2903839;80;21229;-74
2021/04/08 10:58:35;;;;;;;4.50;3.00;;;;;;;7.17;64.71;100546.91;2880924;82;21145;-73
2021/04/08 11:02:41;;;;;;;6.25;1.90;;;;;;;7.29;62.35;100542.63;2874249;81;21568;-71
2021/04/08 11:06:45;;;;;;;9.10;2.70;;;;;;;7.31;60.65;100551.80;2884358;81;21153;-72
2021/04/08 11:10:48;;;;;;;12.47;4.08;;;;;;;7.40;61.72;100560.47;2870179;81;21164;-72
2021/04/08 11:14:57;;;;;;;13.30;4.15;;;;;;;7.40;61.16;100559.14;2872200;81;21141;-70
2021/04/08 11:19:02;;;;;;;7.95;4.85;;;;;;;7.48;61.60;100560.84;2903540;80;21181;-69
2021/04/08 11:23:07;;;;;;;6.28;2.62;;;;;;;7.49;61.37;100570.48;2868920;82;21133;-70
2021/04/08 11:27:11;;;;;;;8.20;2.98;;;;;;;7.67;62.33;100575.04;2856082;81;21110;-72
2021/04/08 11:31:19;;;;;;;4.78;3.30;;;;;;;7.71;61.86;100589.77;2861884;82;21142;-70
2021/04/08 11:35:43;;;;;;;4.70;2.83;;;;;;;7.79;60.76;100566.77;2870594;81;21086;-70
2021/04/08 11:39:47;;;;;;;7.65;3.00;;;;;;;8.04;60.68;100568.27;2864674;81;21146;-69
2021/04/08 11:43:53;;;;;;;9.23;4.30;;;;;;;8.21;59.07;100564.48;2966943;80;21130;-68
2021/04/08 11:48:03;;;;;;;6.62;2.10;;;;;;;8.28;59.44;100575.89;2973079;78;21132;-69
2021/04/08 11:52:12;;;;;;;5.35;3.27;;;;;;;8.15;59.23;100583.82;2888648;81;21173;-70
2021/04/08 11:56:37;;;;;;;5.53;3.10;;;;;;;8.03;59.00;100575.84;2876115;81;21165;-69
2021/04/08 12:00:41;;;;;;;5.92;2.50;;;;;;;8.15;60.11;100591.77;2879141;81;21129;-71
2021/04/08 12:04:48;;;;;;;6.75;3.95;;;;;;;8.13;57.38;100604.27;2864866;82;21145;-71
2021/04/08 12:08:56;;;;;;;10.05;4.62;;;;;;;8.20;60.77;100595.91;2858729;81;21564;-70
2021/04/08 12:13:03;;;;;;;11.63;4.58;;;;;;;8.17;58.37;100591.68;2863671;82;21221;-70
2021/04/08 12:17:12;;;;;;;9.90;4.40;;;;;;;8.25;58.36;100599.09;2881863;81;21639;-72
2021/04/08 12:21:17;;;;;;;7.75;4.67;;;;;;;8.70;58.56;100614.66;2891555;82;21145;-67
2021/04/08 12:25:21;;;;;;;8.08;4.28;;;;;;;8.72;54.78;100610.09;2899357;81;21113;-71
2021/04/08 12:29:25;;;;;;;13.40;3.98;;;;;;;8.80;57.11;100610.89;2874784;81;21622;-70
2021/04/08 12:33:37;;;;;;;9.03;3.40;;;;;;;8.82;56.82;100598.38;2885617;81;21615;-71
2021/04/08 12:37:41;;;;;;;11.10;4.75;;;;;;;8.61;57.12;100613.48;2880722;81;21118;-68
2021/04/08 12:41:44;;;;;;;17.80;4.15;;;;;;;8.29;57.19;100614.69;2862306;83;21133;-70
2021/04/08 12:45:48;;;;;;;9.60;3.22;;;;;;;8.22;57.66;100614.73;2884427;81;21114;-69
2021/04/08 12:49:52;;;;;;;5.35;2.60;;;;;;;8.23;56.71;100622.20;2831904;83;21131;-67
2021/04/08 12:53:55;;;;;;;3.87;2.35;;;;;;;8.40;57.45;100617.94;2831823;83;21553;-67
2021/04/08 12:58:00;;;;;;;5.47;2.40;;;;;;;8.49;56.03;100627.57;2837813;82;21083;-67
2021/04/08 13:02:02;;;;;;;5.65;2.40;;;;;;;8.43;56.09;100627.01;2854087;82;21191;-66
2021/04/08 13:06:06;;;;;;;5.70;3.20;;;;;;;8.51;55.44;100611.11;2831811;84;21134;-66
2021/04/08 13:10:11;;;;;;;10.53;2.72;;;;;;;8.82;55.97;100620.92;2862185;83;21567;-64
2021/04/08 13:14:14;;;;;;;5.33;2.42;;;;;;;9.10;55.68;100636.27;2862592;83;21132;-63
2021/04/08 13:18:17;;;;;;;5.03;2.80;;;;;;;9.35;54.59;100619.91;2862502;81;21117;-64
2021/04/08 13:22:20;;;;;;;4.25;1.95;;;;;;;9.50;54.61;100633.42;2835955;82;21129;-64
2021/04/08 13:26:24;;;;;;;5.47;2.20;;;;;;;9.57;54.18;100621.39;2842714;82;21146;-64
2021/04/08 13:30:29;;;;;;;5.25;2.33;;;;;;;9.58;53.09;100640.84;2854196;82;21138;-62
2021/04/08 13:34:32;;;;;;;3.45;2.05;;;;;;;9.46;52.27;100645.23;2890486;82;21616;-63
2021/04/08 13:38:35;;;;;;;4.42;2.95;;;;;;;9.25;53.49;100643.61;2903381;80;21157;-67
2021/04/08 13:42:40;;;;;;;4.15;3.50;;;;;;;9.21;54.62;100644.30;2903741;80;21165;-67
2021/04/08 13:46:46;;;;;;;13.78;4.15;;;;;;;9.28;55.40;100644.72;2904234;80;21164;-67
2021/04/08 13:51:00;;;;;;;;;;;;;;;9.40;55.25;100650.96;2939929;80;21130;-69
2021/04/08 13:55:04;;;;;;;9.88;3.20;;;;;;;9.56;54.89;100652.06;2898651;82;20407;-72
2021/04/08 13:59:07;;;;;;;4.25;2.72;;;;;;;9.61;54.44;100664.98;2904953;82;21126;-70
2021/04/08 14:03:12;;;;;;;5.05;2.85;;;;;;;9.35;53.77;100661.93;2899817;82;21093;-72
2021/04/08 14:07:15;;;;;;;4.70;3.20;;;;;;;9.28;55.28;100648.70;2905210;82;21117;-71
2021/04/08 14:11:18;;;;;;;3.05;2.02;;;;;;;9.22;56.22;100663.25;2899845;82;21106;-71
2021/04/08 14:15:21;;;;;;;4.22;2.30;;;;;;;9.14;52.31;100660.30;2905517;82;21122;-71
2021/04/08 14:19:27;;;;;;;9.30;2.58;;;;;;;9.12;53.70;100651.10;2899832;82;21145;-72
2021/04/08 14:23:31;;;;;;;5.37;2.37;;;;;;;9.49;53.85;100671.56;2905850;82;21118;-72
2021/04/08 14:27:33;;;;;;;8.70;3.30;;;;;;;9.79;53.92;100650.37;2897476;81;21109;-71
2021/04/08 14:31:37;;;;;;;6.62;2.98;;;;;;;10.07;52.49;100657.67;2854997;82;21518;-72
2021/04/08 14:35:43;;;;;;;9.18;3.00;;;;;;;9.92;52.68;100670.75;2854261;82;21144;-71
2021/04/08 14:39:46;;;;;;;4.77;2.00;;;;;;;9.90;51.70;100693.44;2854661;82;21156;-69
2021/04/08 14:43:49;;;;;;;2.62;2.22;;;;;;;9.90;51.32;100677.98;2854157;83;21132;-70
2021/04/08 14:47:53;;;;;;;5.28;2.45;;;;;;;9.55;51.90;100693.69;2854217;83;21112;-70
2021/04/08 14:51:56;;;;;;;2.33;1.95;;;;;;;9.20;53.21;100685.07;2854143;82;21124;-72
2021/04/08 14:56:00;;;;;;;11.30;4.25;;;;;;;8.97;54.44;100694.16;2854205;82;21148;-69
2021/04/08 15:00:06;;;;;;;15.85;3.08;;;;;;;8.91;55.21;100689.73;2854191;82;21116;-69
2021/04/08 15:04:11;;;;;;;10.75;3.35;;;;;;;9.03;56.37;100692.89;2854255;83;21152;-70
2021/04/08 15:08:14;;;;;;;4.95;2.70;;;;;;;9.37;53.81;100684.37;2853979;82;21148;-70
2021/04/08 15:12:18;;;;;;;3.92;2.37;;;;;;;9.47;52.56;100690.74;2854130;82;21160;-68
2021/04/08 15:16:22;;;;;;;2.85;2.00;;;;;;;9.40;53.53;100684.15;2854242;83;21569;-70
2021/04/08 15:20:26;;;;;;;3.85;2.27;;;;;;;9.48;51.73;100677.84;2854127;83;21136;-70
2021/04/08 15:24:29;;;;;;;4.37;2.25;;;;;;;9.36;51.53;100686.66;2854482;83;21538;-69
2021/04/08 15:28:32;;;;;;;3.00;2.15;;;;;;;9.24;53.26;100681.73;2864365;81;21200;-69
2021/04/08 15:32:37;;;;;;;10.25;4.33;;;;;;;9.02;51.61;100690.33;2904382;82;21117;-70
2021/04/08 15:36:41;;;;;;;5.78;2.20;;;;;;;8.88;52.48;100689.49;2888588;82;21126;-69
2021/04/08 15:40:44;;;;;;;3.70;2.52;;;;;;;8.71;51.78;100695.47;2905157;80;21173;-68
2021/04/08 15:44:46;;;;;;;4.17;1.17;;;;;;;8.60;53.87;100706.42;2859903;82;21771;-71
2021/04/08 15:48:50;;;;;;;10.00;2.40;;;;;;;8.51;51.73;100704.74;2880124;81;21177;-70
2021/04/08 15:52:53;;;;;;;5.85;2.15;;;;;;;8.63;52.67;100707.05;2869928;82;21129;-73
2021/04/08 15:56:56;;;;;;;7.50;2.75;;;;;;;8.91;52.27;100706.52;2880308;81;21592;-71
2021/04/08 16:01:04;;;;;;;4.08;2.12;;;;;;;8.98;51.27;100718.41;2868915;82;21102;-69
2021/04/08 16:05:09;;;;;;;4.08;2.65;;;;;;;8.82;51.75;100711.98;2906694;80;21185;-64
2021/04/08 16:09:17;;;;;;;6.20;3.05;;;;;;;8.57;53.59;100719.40;2870695;82;21107;-62
2021/04/08 16:13:20;;;;;;;7.62;3.45;;;;;;;8.47;54.65;100728.41;2864872;82;21178;-63
2021/04/08 16:17:24;;;;;;;6.12;3.30;;;;;;;8.65;53.85;100722.41;2904587;80;21118;-63
2021/04/08 16:21:28;;;;;;;4.20;2.83;;;;;;;8.95;52.84;100725.25;2902649;81;21544;-64
2021/04/08 16:25:35;;;;;;;2.52;1.80;;;;;;;9.23;52.72;100726.00;2918510;80;21527;-62
2021/04/08 16:29:43;;;;;;;2.77;2.37;;;;;;;9.41;51.65;100721.69;2864281;82;21106;-63
2021/04/08 16:33:47;;;;;;;3.10;1.90;;;;;;;9.50;51.51;100721.52;2875333;81;21250;-63
2021/04/08 16:37:50;;;;;;;3.55;1.85;;;;;;;9.41;51.49;100734.50;2902276;80;21347;-63
2021/04/08 16:41:53;;;;;;;3.52;3.22;;;;;;;9.13;52.51;100741.70;2910367;80;21171;-63
2021/04/08 16:45:58;;;;;;;3.70;3.30;;;;;;;8.63;56.02;100757.92;2876593;82;21104;-62
2021/04/08 16:50:01;;;;;;;13.68;4.33;;;;;;;8.08;57.60;100752.13;2859046;82;21139;-62
2021/04/08 16:54:05;;;;;;;5.20;3.42;;;;;;;7.74;59.08;100768.81;2908736;80;21580;-62
2021/04/08 16:58:08;;;;;;;10.72;4.42;;;;;;;7.47;59.43;100757.67;2903652;80;21636;-62
2021/04/08 17:02:11;;;;;;;9.55;5.12;;;;;;;7.33;59.92;100770.88;2898346;82;21124;-62
2021/04/08 17:06:15;;;;;;;10.80;3.52;;;;;;;7.26;59.47;100767.75;2905218;80;21078;-62
2021/04/08 17:10:19;;;;;;;8.40;4.10;;;;;;;7.29;58.39;100783.44;2902045;81;21596;-62
2021/04/08 17:14:22;;;;;;;2.42;2.22;;;;;;;7.31;56.58;100780.72;2898153;82;21547;-63
2021/04/08 17:18:25;;;;;;;2.17;1.98;;;;;;;7.31;55.79;100795.27;2904348;81;21130;-64
2021/04/08 17:22:28;;;;;;;3.08;2.75;;;;;;;7.24;56.29;100794.30;2907057;81;21087;-62
2021/04/08 17:26:31;;;;;;;7.45;4.90;;;;;;;7.13;56.73;100799.39;2906592;81;21102;-64
2021/04/08 17:30:34;;;;;;;4.90;3.10;;;;;;;6.99;57.78;100802.86;2906966;81;21114;-62
2021/04/08 17:34:38;;;;;;;8.58;4.55;;;;;;;6.81;58.72;100806.08;2908565;80;21118;-62
2021/04/08 17:38:41;;;;;;;9.85;4.17;;;;;;;6.68;59.16;100816.06;2868952;82;21183;-62
2021/04/08 17:42:45;;;;;;;10.55;5.17;;;;;;;6.53;59.80;100820.41;2883982;80;21134;-63
2021/04/08 17:46:48;;;;;;;4.30;3.83;;;;;;;6.32;60.69;100830.41;2868370;83;21102;-62
2021/04/08 17:50:51;;;;;;;12.98;4.05;;;;;;;6.12;61.70;100826.20;2868456;83;21170;-62
2021/04/08 17:54:54;;;;;;;6.30;3.67;;;;;;;5.99;62.76;100839.19;2868450;83;21186;-63
2021/04/08 17:58:57;;;;;;;4.40;2.95;;;;;;;5.86;63.45;100839.83;2871849;81;21117;-61
2021/04/08 18:03:01;;;;;;;9.43;4.90;;;;;;;5.73;64.41;100846.72;2868678;83;21097;-63
2021/04/08 18:07:05;;;;;;;7.65;4.17;;;;;;;5.55;65.32;100853.34;2868214;83;21563;-62
2021/04/08 18:11:08;;;;;;;5.62;4.12;;;;;;;5.46;65.82;100859.08;2868288;83;21544;-64
2021/04/08 18:15:14;;;;;;;11.25;4.05;;;;;;;5.41;66.44;100859.34;2868541;82;21571;-62
2021/04/08 18:19:17;;;;;;;8.18;3.85;;;;;;;5.40;66.95;100864.68;2868439;83;21113;-62
2021/04/08 18:23:20;;;;;;;6.65;3.55;;;;;;;5.43;67.37;100873.75;2868394;82;21504;-63
2021/04/08 18:27:26;;;;;;;5.90;4.03;;;;;;;5.46;67.49;100872.27;2868415;83;21133;-63
2021/04/08 18:31:28;;;;;;;7.57;3.77;;;;;;;5.49;67.37;100876.06;2864043;82;21193;-63
2021/04/08 18:35:31;;;;;;;9.83;4.08;;;;;;;5.52;67.21;100874.62;2862188;82;21137;-63
2021/04/08 18:39:35;;;;;;;5.12;3.52;;;;;;;5.50;67.48;100885.72;2890954;81;21109;-62
2021/04/08 18:43:39;;;;;;;8.93;5.25;;;;;;;5.47;68.08;100897.73;2906345;81;21094;-61
2021/04/08 18:47:43;;;;;;;7.78;5.37;;;;;;;5.50;68.56;100904.19;2861314;82;21106;-63
2021/04/08 18:51:46;;;;;;;6.83;5.05;;;;;;;5.57;68.14;100900.30;2861440;83;21142;-63
2021/04/08 18:55:49;;;;;;;7.75;4.80;;;;;;;5.65;68.12;100901.68;2876099;81;21137;-63
2021/04/08 18:59:54;;;;;;;10.72;6.00;;;;;;;5.77;68.29;100905.47;2816019;82;21129;-64
2021/04/08 19:03:56;;;;;;;10.13;6.47;;;;;;;5.85;68.43;100900.66;2879083;81;21192;-62
2021/04/08 19:07:59;;;;;;;11.15;5.05;;;;;;;5.94;67.92;100901.48;2868974;81;21136;-60
2021/04/08 19:12:05;;;;;;;14.38;7.67;;;;;;;5.99;67.45;100906.08;2854194;82;21142;-61
2021/04/08 19:16:08;;;;;;;19.82;13.15;;;;;;;6.00;67.08;100910.88;2855568;83;21111;-62